Time;durP1;ratioP1;P1;durP2;ratioP2;P2;SDS_P1;SDS_P2;PMS_P1;PMS_P2;Temp;Humidity;BMP_temperature;BMP_pressure;BME280_temperature;BME280_humidity;BME280_pressure;Samples;Min_cycle;Max_cycle;Signal;HPM_P1;HPM_P2
2021/09/09 00:16:22;;;;;;;3.30;2.35;;;;;;;;;;4810613;28;20118;-66
2021/09/09 00:18:48;;;;;;;3.47;2.30;;;;;;;;;;4172332;34;20118;-67
2021/09/09 00:21:14;;;;;;;3.60;2.37;;;;;;;;;;4175445;34;20386;-68
2021/09/09 00:23:40;;;;;;;3.20;2.30;;;;;;;;;;4176647;34;20118;-68
2021/09/09 00:26:06;;;;;;;5.97;2.37;;;;;;;;;;4176541;34;20519;-67
2021/09/09 00:28:32;;;;;;;2.42;2.00;;;;;;;;;;4176630;34;20197;-68
2021/09/09 00:30:58;;;;;;;3.22;2.50;;;;;;;;;;4176245;34;20134;-67
2021/09/09 00:33:24;;;;;;;5.57;2.42;;;;;;;;;;4163688;34;20126;-68
2021/09/09 00:35:49;;;;;;;5.37;2.35;;;;;;;;;;4176400;34;20800;-68
2021/09/09 00:38:15;;;;;;;6.07;2.47;;;;;;;;;;4176192;34;20095;-68
2021/09/09 00:40:41;;;;;;;5.87;2.75;;;;;;;;;;4176367;34;20110;-68
2021/09/09 00:43:07;;;;;;;3.97;2.70;;;;;;;;;;4176157;34;20121;-68
2021/09/09 00:45:33;;;;;;;4.53;2.70;;;;;;;;;;4177865;34;20482;-68
2021/09/09 00:47:59;;;;;;;5.68;2.67;;;;;;;;;;4178254;34;20117;-68
2021/09/09 00:50:25;;;;;;;7.07;2.75;;;;;;;;;;4178489;34;20214;-68
2021/09/09 00:52:51;;;;;;;7.68;2.83;;;;;;;;;;4178432;34;20138;-68
2021/09/09 00:55:17;;;;;;;4.10;2.60;;;;;;;;;;4178603;34;20126;-68
2021/09/09 00:57:44;;;;;;;3.75;2.08;;;;;;;;;;4178904;34;20329;-68
2021/09/09 01:00:10;;;;;;;4.85;2.47;;;;;;;;;;4178468;34;20480;-68
2021/09/09 01:02:36;;;;;;;4.47;2.30;;;;;;;;;;4178318;34;20210;-69
2021/09/09 01:05:03;;;;;;;5.10;2.50;;;;;;;;;;4178233;34;20566;-68
2021/09/09 01:07:29;;;;;;;3.33;2.22;;;;;;;;;;4178124;34;20133;-68
2021/09/09 01:09:56;;;;;;;4.25;2.75;;;;;;;;;;4178145;34;20102;-68
2021/09/09 01:12:22;;;;;;;4.55;2.85;;;;;;;;;;4165781;34;20161;-68
2021/09/09 01:14:48;;;;;;;5.37;2.50;;;;;;;;;;4178418;34;20114;-68
2021/09/09 01:17:14;;;;;;;5.00;2.47;;;;;;;;;;4178176;34;20230;-68
2021/09/09 01:19:39;;;;;;;4.72;2.47;;;;;;;;;;4178058;34;20189;-68
2021/09/09 01:22:05;;;;;;;4.05;3.00;;;;;;;;;;4177918;34;20094;-68
2021/09/09 01:24:31;;;;;;;7.00;2.17;;;;;;;;;;4178033;34;20123;-68
2021/09/09 01:27:05;;;;;;;4.60;2.45;;;;;;;;;;4178352;34;20279;-68
2021/09/09 01:29:32;;;;;;;4.28;2.20;;;;;;;;;;4178045;34;20117;-68
2021/09/09 01:31:58;;;;;;;3.95;2.62;;;;;;;;;;4177843;34;20117;-68
2021/09/09 01:34:24;;;;;;;3.50;2.70;;;;;;;;;;4177981;34;20107;-68
2021/09/09 01:36:51;;;;;;;4.00;2.42;;;;;;;;;;4177987;34;20117;-69
2021/09/09 01:39:17;;;;;;;3.28;2.37;;;;;;;;;;4177911;34;20120;-68
2021/09/09 01:41:42;;;;;;;2.55;2.25;;;;;;;;;;4165254;34;20507;-68
2021/09/09 01:44:08;;;;;;;4.75;2.33;;;;;;;;;;4177804;34;20467;-68
2021/09/09 01:46:34;;;;;;;5.18;2.60;;;;;;;;;;4177951;34;20125;-68
2021/09/09 01:49:00;;;;;;;2.83;2.50;;;;;;;;;;4177745;34;20511;-69
2021/09/09 01:51:27;;;;;;;4.30;3.12;;;;;;;;;;4165168;34;20222;-68
2021/09/09 01:53:56;;;;;;;6.95;3.47;;;;;;;;;;4165143;34;20116;-68
2021/09/09 01:56:22;;;;;;;5.10;2.90;;;;;;;;;;4177017;34;20204;-68
2021/09/09 01:58:48;;;;;;;4.40;2.90;;;;;;;;;;4176699;34;20082;-68
2021/09/09 02:01:15;;;;;;;4.55;2.50;;;;;;;;;;4176410;34;20146;-68
2021/09/09 02:03:41;;;;;;;5.65;2.78;;;;;;;;;;4177706;34;20114;-68
2021/09/09 02:06:07;;;;;;;4.43;2.53;;;;;;;;;;4176236;34;20145;-68
2021/09/09 02:08:33;;;;;;;6.30;2.62;;;;;;;;;;4177842;34;20129;-69
2021/09/09 02:10:59;;;;;;;4.78;2.78;;;;;;;;;;4177571;34;20122;-68
2021/09/09 02:13:25;;;;;;;5.22;2.95;;;;;;;;;;4177730;34;20650;-69
2021/09/09 02:15:51;;;;;;;4.97;2.53;;;;;;;;;;4177517;34;20095;-67
2021/09/09 02:18:16;;;;;;;6.07;3.12;;;;;;;;;;4177383;34;20139;-69
2021/09/09 02:20:42;;;;;;;5.70;2.92;;;;;;;;;;4177571;34;20113;-69
2021/09/09 02:23:08;;;;;;;3.80;2.40;;;;;;;;;;4164754;34;20122;-69
2021/09/09 02:25:34;;;;;;;4.55;2.80;;;;;;;;;;4176643;34;20672;-70
2021/09/09 02:28:00;;;;;;;6.78;2.97;;;;;;;;;;4164793;34;20530;-67
2021/09/09 02:30:26;;;;;;;6.25;3.10;;;;;;;;;;4164909;34;20137;-69
2021/09/09 02:32:53;;;;;;;5.45;2.83;;;;;;;;;;4177347;34;20177;-69
2021/09/09 02:35:24;;;;;;;5.55;2.90;;;;;;;;;;4177927;34;20483;-68
2021/09/09 02:37:50;;;;;;;6.50;2.70;;;;;;;;;;4164848;34;20106;-70
2021/09/09 02:40:16;;;;;;;5.03;2.90;;;;;;;;;;4177659;34;20615;-70
2021/09/09 02:42:42;;;;;;;4.78;2.87;;;;;;;;;;4177586;34;20141;-69
2021/09/09 02:45:09;;;;;;;4.37;2.72;;;;;;;;;;4177702;34;20133;-69
2021/09/09 02:47:34;;;;;;;4.25;2.67;;;;;;;;;;4177443;34;20150;-69
2021/09/09 02:50:00;;;;;;;4.68;2.60;;;;;;;;;;4177253;34;20516;-69
2021/09/09 02:52:27;;;;;;;13.02;3.10;;;;;;;;;;4177289;34;20115;-69
2021/09/09 02:54:53;;;;;;;6.35;2.87;;;;;;;;;;4177481;34;20103;-69
2021/09/09 02:57:19;;;;;;;6.72;3.12;;;;;;;;;;4177223;34;20117;-70
2021/09/09 02:59:45;;;;;;;3.72;2.53;;;;;;;;;;4177444;34;20111;-71
2021/09/09 03:02:11;;;;;;;6.53;2.67;;;;;;;;;;4177562;34;20130;-71
2021/09/09 03:04:36;;;;;;;5.22;3.22;;;;;;;;;;4164680;34;20138;-69
2021/09/09 03:07:03;;;;;;;4.62;2.90;;;;;;;;;;4177179;34;20690;-69
2021/09/09 03:09:29;;;;;;;10.13;3.25;;;;;;;;;;4176817;34;20150;-69
2021/09/09 03:11:54;;;;;;;4.40;2.65;;;;;;;;;;4175130;34;20114;-68
2021/09/09 03:14:20;;;;;;;4.65;2.78;;;;;;;;;;4175316;34;20194;-69
2021/09/09 03:16:46;;;;;;;6.28;3.72;;;;;;;;;;4176117;34;20137;-69
2021/09/09 03:19:12;;;;;;;6.12;2.97;;;;;;;;;;4177008;34;20343;-69
2021/09/09 03:21:38;;;;;;;4.25;2.85;;;;;;;;;;4163995;34;20114;-69
2021/09/09 03:24:04;;;;;;;7.22;2.75;;;;;;;;;;4177042;34;20122;-69
2021/09/09 03:26:30;;;;;;;3.17;2.50;;;;;;;;;;4177179;34;20210;-68
2021/09/09 03:28:56;;;;;;;5.10;2.62;;;;;;;;;;4176970;34;20130;-69
2021/09/09 03:31:22;;;;;;;4.78;2.95;;;;;;;;;;4176845;34;20176;-69
2021/09/09 03:33:47;;;;;;;8.25;2.80;;;;;;;;;;4177251;34;20280;-69
2021/09/09 03:36:13;;;;;;;10.20;3.65;;;;;;;;;;4177169;34;20202;-70
2021/09/09 03:38:39;;;;;;;6.85;3.25;;;;;;;;;;4176865;34;20094;-69
2021/09/09 03:41:05;;;;;;;6.22;2.75;;;;;;;;;;4176754;34;20114;-68
2021/09/09 03:43:31;;;;;;;5.97;2.75;;;;;;;;;;4176995;34;20111;-69
2021/09/09 03:45:57;;;;;;;5.65;2.60;;;;;;;;;;4176901;34;20122;-69
2021/09/09 03:48:23;;;;;;;2.97;2.55;;;;;;;;;;4176843;34;20137;-70
2021/09/09 03:50:49;;;;;;;4.12;2.60;;;;;;;;;;4164254;34;20108;-70
2021/09/09 03:53:14;;;;;;;5.37;2.83;;;;;;;;;;4176768;34;20165;-69
2021/09/09 03:55:40;;;;;;;7.12;2.80;;;;;;;;;;4176506;34;20197;-69
2021/09/09 03:58:06;;;;;;;5.68;3.53;;;;;;;;;;4176654;34;20125;-69
2021/09/09 04:00:32;;;;;;;7.70;3.15;;;;;;;;;;4176601;34;20128;-69
2021/09/09 04:02:59;;;;;;;7.93;3.35;;;;;;;;;;4174532;34;20214;-69
2021/09/09 04:05:25;;;;;;;6.18;3.10;;;;;;;;;;4161959;34;20125;-68
2021/09/09 04:07:51;;;;;;;4.03;2.47;;;;;;;;;;4162262;34;20113;-68
2021/09/09 04:10:17;;;;;;;6.68;3.17;;;;;;;;;;4176269;34;20118;-68
2021/09/09 04:12:43;;;;;;;6.85;2.83;;;;;;;;;;4175676;34;20599;-68
2021/09/09 04:15:09;;;;;;;6.87;3.47;;;;;;;;;;4174050;34;20549;-67
2021/09/09 04:17:35;;;;;;;3.78;2.95;;;;;;;;;;4174836;34;20141;-68
2021/09/09 04:20:02;;;;;;;6.62;2.83;;;;;;;;;;4176004;34;20133;-68
2021/09/09 04:22:28;;;;;;;4.70;2.75;;;;;;;;;;4177053;34;20139;-69
2021/09/09 04:24:54;;;;;;;6.57;3.03;;;;;;;;;;4165531;34;20541;-68
2021/09/09 04:27:22;;;;;;;5.10;3.22;;;;;;;;;;4178000;34;20114;-68
2021/09/09 04:29:49;;;;;;;4.97;3.00;;;;;;;;;;4178327;34;20123;-68
2021/09/09 04:32:15;;;;;;;3.60;2.67;;;;;;;;;;4178245;34;20113;-68
2021/09/09 04:34:41;;;;;;;4.35;3.28;;;;;;;;;;4165712;34;20098;-68
2021/09/09 04:37:08;;;;;;;6.18;3.17;;;;;;;;;;4165407;34;20121;-68
2021/09/09 04:39:33;;;;;;;4.95;2.90;;;;;;;;;;4178183;34;20106;-68
2021/09/09 04:41:59;;;;;;;9.75;5.22;;;;;;;;;;4178218;34;20138;-68
2021/09/09 04:44:25;;;;;;;8.95;3.40;;;;;;;;;;4178256;34;20125;-68
2021/09/09 04:46:51;;;;;;;5.05;3.35;;;;;;;;;;4178172;34;20122;-68
2021/09/09 04:49:17;;;;;;;5.60;3.08;;;;;;;;;;4178125;34;20171;-69
2021/09/09 04:51:43;;;;;;;3.60;2.87;;;;;;;;;;4178033;34;20129;-69
2021/09/09 04:54:09;;;;;;;5.70;3.20;;;;;;;;;;4178422;34;20110;-69
2021/09/09 04:56:35;;;;;;;3.55;2.95;;;;;;;;;;4178284;34;20118;-69
2021/09/09 04:59:01;;;;;;;5.35;3.53;;;;;;;;;;4165272;34;20147;-69
2021/09/09 05:01:26;;;;;;;6.37;3.62;;;;;;;;;;4165312;34;20113;-68
2021/09/09 05:03:52;;;;;;;5.50;3.55;;;;;;;;;;4178102;34;20166;-69
2021/09/09 05:06:18;;;;;;;7.35;3.20;;;;;;;;;;4178349;34;20137;-69
2021/09/09 05:08:44;;;;;;;7.15;3.50;;;;;;;;;;4178426;34;20114;-69
2021/09/09 05:11:11;;;;;;;7.93;2.97;;;;;;;;;;4177894;34;20532;-69
2021/09/09 05:13:38;;;;;;;4.47;2.87;;;;;;;;;;4165707;34;20110;-69
2021/09/09 05:16:05;;;;;;;5.00;2.83;;;;;;;;;;4165352;34;20106;-70
2021/09/09 05:18:31;;;;;;;4.90;3.10;;;;;;;;;;4178142;34;20214;-71
2021/09/09 05:20:57;;;;;;;5.15;3.37;;;;;;;;;;4165131;34;20130;-70
2021/09/09 05:23:22;;;;;;;8.27;3.00;;;;;;;;;;4178148;34;20542;-71
2021/09/09 05:25:48;;;;;;;7.40;3.20;;;;;;;;;;4177836;34;20095;-70
2021/09/09 05:28:14;;;;;;;7.75;3.10;;;;;;;;;;4178251;34;20117;-72
2021/09/09 05:30:40;;;;;;;7.87;2.80;;;;;;;;;;4177209;34;20099;-70
2021/09/09 05:33:06;;;;;;;6.57;2.95;;;;;;;;;;4165300;34;20214;-71
2021/09/09 05:35:32;;;;;;;7.12;3.33;;;;;;;;;;4177830;34;20118;-71
2021/09/09 05:37:58;;;;;;;6.90;3.40;;;;;;;;;;4177784;34;20134;-70
2021/09/09 05:40:24;;;;;;;4.47;3.00;;;;;;;;;;4177783;34;20500;-70
2021/09/09 05:42:49;;;;;;;5.47;3.12;;;;;;;;;;4177835;34;20474;-70
2021/09/09 05:45:15;;;;;;;4.47;3.15;;;;;;;;;;4165111;34;20103;-71
2021/09/09 05:47:41;;;;;;;4.90;3.33;;;;;;;;;;4178089;34;20099;-70
2021/09/09 05:50:07;;;;;;;8.75;3.47;;;;;;;;;;4177966;34;20156;-70
2021/09/09 05:52:33;;;;;;;4.62;3.10;;;;;;;;;;4178001;34;20126;-71
2021/09/09 05:54:59;;;;;;;4.60;3.00;;;;;;;;;;4177694;34;20537;-70
2021/09/09 05:57:25;;;;;;;4.43;3.40;;;;;;;;;;4177601;34;20111;-69
2021/09/09 05:59:51;;;;;;;6.20;3.70;;;;;;;;;;4177665;34;20130;-69
2021/09/09 06:02:17;;;;;;;8.85;3.72;;;;;;;;;;4177767;34;20553;-70
2021/09/09 06:04:44;;;;;;;6.15;3.58;;;;;;;;;;4177847;34;20122;-70
2021/09/09 06:07:10;;;;;;;4.85;3.78;;;;;;;;;;4177486;34;20133;-70
2021/09/09 06:09:39;;;;;;;7.85;3.60;;;;;;;;;;4177659;34;20126;-70
2021/09/09 06:12:05;;;;;;;5.35;3.55;;;;;;;;;;4165104;34;20110;-70
2021/09/09 06:14:31;;;;;;;6.05;3.83;;;;;;;;;;4164839;34;20098;-69
2021/09/09 06:16:57;;;;;;;4.45;3.20;;;;;;;;;;4164861;34;20117;-70
2021/09/09 06:19:24;;;;;;;5.30;3.58;;;;;;;;;;4177658;34;20521;-69
2021/09/09 06:21:51;;;;;;;5.95;3.50;;;;;;;;;;4177396;34;20122;-69
2021/09/09 06:24:17;;;;;;;9.45;3.75;;;;;;;;;;4164860;34;20125;-69
2021/09/09 06:26:43;;;;;;;5.12;3.78;;;;;;;;;;4177367;34;20482;-70
2021/09/09 06:29:08;;;;;;;5.93;3.30;;;;;;;;;;4177433;34;20145;-70
2021/09/09 06:31:34;;;;;;;6.18;3.28;;;;;;;;;;4177616;34;20138;-69
2021/09/09 06:34:00;;;;;;;5.30;3.30;;;;;;;;;;4164656;34;20133;-70
2021/09/09 06:36:26;;;;;;;5.93;3.25;;;;;;;;;;4177322;34;20452;-70
2021/09/09 06:38:52;;;;;;;9.75;3.33;;;;;;;;;;4177286;34;20482;-70
2021/09/09 06:41:18;;;;;;;4.25;2.95;;;;;;;;;;4164681;34;20129;-70
2021/09/09 06:43:44;;;;;;;5.22;3.25;;;;;;;;;;4178006;34;20121;-69
2021/09/09 06:46:10;;;;;;;4.95;2.97;;;;;;;;;;4177300;34;20438;-69
2021/09/09 06:48:36;;;;;;;4.32;3.20;;;;;;;;;;4177389;34;20624;-70
2021/09/09 06:51:02;;;;;;;5.22;3.25;;;;;;;;;;4164370;34;20118;-69
2021/09/09 06:53:29;;;;;;;4.68;3.62;;;;;;;;;;4177648;34;20130;-69
2021/09/09 06:55:55;;;;;;;5.15;4.05;;;;;;;;;;4176970;34;20107;-68
2021/09/09 06:58:21;;;;;;;7.97;3.65;;;;;;;;;;4177324;34;20157;-71
2021/09/09 07:00:47;;;;;;;5.25;3.78;;;;;;;;;;4177342;34;20132;-70
2021/09/09 07:03:12;;;;;;;6.30;3.05;;;;;;;;;;4177232;34;20206;-71
2021/09/09 07:05:38;;;;;;;5.75;3.72;;;;;;;;;;4177327;34;20126;-71
2021/09/09 07:08:04;;;;;;;5.62;3.80;;;;;;;;;;4177216;34;20114;-71
2021/09/09 07:10:30;;;;;;;4.90;3.60;;;;;;;;;;4177066;34;20111;-70
2021/09/09 07:12:56;;;;;;;5.60;3.20;;;;;;;;;;4177005;34;20117;-68
2021/09/09 07:15:22;;;;;;;7.50;3.42;;;;;;;;;;4177119;34;20127;-69
2021/09/09 07:17:48;;;;;;;5.85;3.87;;;;;;;;;;4176985;34;20639;-68
2021/09/09 07:20:14;;;;;;;7.05;3.62;;;;;;;;;;4164369;34;20130;-69
2021/09/09 07:22:40;;;;;;;9.02;4.65;;;;;;;;;;4177078;34;20213;-69
2021/09/09 07:25:06;;;;;;;6.28;3.53;;;;;;;;;;4177229;34;20123;-70
2021/09/09 07:27:32;;;;;;;9.25;5.15;;;;;;;;;;4177122;34;20145;-68
2021/09/09 07:29:58;;;;;;;7.20;4.50;;;;;;;;;;4177130;34;20578;-70
2021/09/09 07:32:24;;;;;;;8.45;6.00;;;;;;;;;;4177200;34;20129;-70
2021/09/09 07:34:51;;;;;;;8.65;5.28;;;;;;;;;;4177927;34;20102;-69
2021/09/09 07:37:17;;;;;;;6.05;4.70;;;;;;;;;;4177316;34;20154;-69
2021/09/09 07:39:43;;;;;;;6.68;3.83;;;;;;;;;;4177256;34;20121;-70
2021/09/09 07:42:09;;;;;;;7.18;4.90;;;;;;;;;;4176944;34;20108;-69
2021/09/09 07:44:34;;;;;;;9.75;4.70;;;;;;;;;;4164573;34;20125;-69
2021/09/09 07:47:01;;;;;;;4.85;4.05;;;;;;;;;;4164089;34;20106;-69
2021/09/09 07:49:28;;;;;;;5.00;3.72;;;;;;;;;;4164194;34;20542;-69
2021/09/09 07:51:54;;;;;;;5.93;3.87;;;;;;;;;;4164121;34;20530;-69
2021/09/09 07:54:20;;;;;;;6.55;3.17;;;;;;;;;;4176031;34;20114;-70
2021/09/09 07:56:48;;;;;;;5.68;3.75;;;;;;;;;;4176673;34;20118;-70
2021/09/09 07:59:14;;;;;;;6.00;4.20;;;;;;;;;;4176936;34;20114;-69
2021/09/09 08:01:40;;;;;;;4.75;3.42;;;;;;;;;;4164039;34;20118;-69
2021/09/09 08:04:06;;;;;;;5.30;3.87;;;;;;;;;;4176898;34;20125;-69
2021/09/09 08:06:32;;;;;;;5.65;3.62;;;;;;;;;;4176713;34;20103;-70
2021/09/09 08:08:58;;;;;;;4.50;3.78;;;;;;;;;;4176651;34;20190;-69
2021/09/09 08:11:24;;;;;;;7.28;4.00;;;;;;;;;;4176836;34;20117;-69
2021/09/09 08:13:52;;;;;;;6.20;3.92;;;;;;;;;;4176583;34;20122;-69
2021/09/09 08:16:20;;;;;;;5.37;4.15;;;;;;;;;;4163925;34;20123;-69
2021/09/09 08:18:46;;;;;;;5.15;3.50;;;;;;;;;;4172988;34;20209;-70
2021/09/09 08:21:14;;;;;;;7.87;3.92;;;;;;;;;;4163749;34;20513;-68
2021/09/09 08:23:40;;;;;;;7.80;4.20;;;;;;;;;;4176108;34;20202;-68
2021/09/09 08:26:06;;;;;;;6.62;4.28;;;;;;;;;;4176332;34;20141;-68
2021/09/09 08:28:32;;;;;;;7.60;4.28;;;;;;;;;;4163417;34;20539;-68
2021/09/09 08:30:58;;;;;;;5.07;4.30;;;;;;;;;;4176149;34;20217;-68
2021/09/09 08:33:24;;;;;;;6.62;4.28;;;;;;;;;;4176291;34;20142;-68
2021/09/09 08:35:50;;;;;;;8.48;4.10;;;;;;;;;;4176320;34;20553;-69
2021/09/09 08:38:16;;;;;;;5.50;3.67;;;;;;;;;;4176086;34;20205;-69
2021/09/09 08:40:42;;;;;;;4.82;3.97;;;;;;;;;;4163729;34;20154;-68
2021/09/09 08:43:08;;;;;;;7.87;3.90;;;;;;;;;;4176145;34;20149;-69
2021/09/09 08:45:34;;;;;;;7.85;4.12;;;;;;;;;;4163819;34;20186;-69
2021/09/09 08:48:02;;;;;;;6.97;3.70;;;;;;;;;;4163272;34;20111;-68
2021/09/09 08:50:28;;;;;;;6.18;3.83;;;;;;;;;;4175934;34;20113;-69
2021/09/09 08:52:55;;;;;;;7.12;4.22;;;;;;;;;;4176218;34;20110;-69
2021/09/09 08:55:21;;;;;;;6.47;3.62;;;;;;;;;;4163401;34;20226;-69
2021/09/09 08:57:47;;;;;;;4.03;3.00;;;;;;;;;;4176132;34;20503;-69
2021/09/09 09:00:13;;;;;;;6.07;2.85;;;;;;;;;;4175916;34;20225;-68
2021/09/09 09:02:53;;;;;;;7.80;4.22;;;;;;;;;;4176148;34;20114;-68
2021/09/09 09:05:19;;;;;;;4.85;3.97;;;;;;;;;;4176814;34;20560;-68
2021/09/09 09:07:45;;;;;;;5.62;3.95;;;;;;;;;;4178122;34;20118;-67
2021/09/09 09:10:11;;;;;;;5.85;4.07;;;;;;;;;;4178135;34;20214;-68
2021/09/09 09:12:55;;;;;;;12.40;6.78;;;;;;;;;;4165556;34;20114;-68
2021/09/09 09:15:25;;;;;;;5.65;4.62;;;;;;;;;;4178066;34;20129;-68
2021/09/09 09:18:03;;;;;;;9.55;3.83;;;;;;;;;;4177793;34;20198;-67
2021/09/09 09:20:51;;;;;;;7.85;4.30;;;;;;;;;;4178000;34;20431;-67
2021/09/09 09:23:19;;;;;;;11.70;4.78;;;;;;;;;;4172138;34;20630;-68
2021/09/09 09:25:58;;;;;;;7.20;3.90;;;;;;;;;;4178178;34;20542;-68
2021/09/09 09:28:39;;;;;;;8.05;6.35;;;;;;;;;;4165030;34;20550;-67
2021/09/09 09:31:09;;;;;;;5.12;3.95;;;;;;;;;;4177909;34;20193;-70
2021/09/09 09:33:40;;;;;;;8.40;4.50;;;;;;;;;;4165313;34;20119;-67
2021/09/09 09:36:25;;;;;;;6.57;3.70;;;;;;;;;;4165618;34;20091;-68
2021/09/09 09:39:17;;;;;;;4.82;4.12;;;;;;;;;;4177837;34;20118;-69
2021/09/09 09:41:52;;;;;;;7.53;4.40;;;;;;;;;;4163433;34;20105;-69
2021/09/09 09:44:27;;;;;;;7.85;3.85;;;;;;;;;;4178046;34;20199;-70
2021/09/09 09:46:53;;;;;;;5.37;4.00;;;;;;;;;;4177901;34;20129;-68
2021/09/09 09:49:22;;;;;;;10.05;4.37;;;;;;;;;;4167318;34;20106;-70
2021/09/09 09:51:49;;;;;;;8.35;4.37;;;;;;;;;;4191264;34;20109;-70
2021/09/09 09:54:15;;;;;;;6.60;4.53;;;;;;;;;;4191327;34;20105;-70
2021/09/09 09:56:42;;;;;;;4.53;3.70;;;;;;;;;;4191262;34;20205;-69
2021/09/09 09:59:09;;;;;;;4.47;3.60;;;;;;;;;;4191146;34;20196;-69
2021/09/09 10:01:35;;;;;;;6.28;4.15;;;;;;;;;;4191286;34;20303;-69
2021/09/09 10:04:27;;;;;;;6.47;4.62;;;;;;;;;;4189965;34;20129;-69
2021/09/09 10:06:54;;;;;;;7.43;4.37;;;;;;;;;;4175090;34;20102;-69
2021/09/09 10:09:20;;;;;;;7.35;4.80;;;;;;;;;;4178345;34;20524;-69
2021/09/09 10:11:46;;;;;;;8.27;4.55;;;;;;;;;;4175588;34;20186;-69
2021/09/09 10:14:21;;;;;;;8.32;4.72;;;;;;;;;;4164806;34;20137;-69
2021/09/09 10:16:47;;;;;;;6.87;5.07;;;;;;;;;;4164607;34;20203;-71
2021/09/09 10:19:13;;;;;;;6.05;4.90;;;;;;;;;;4165994;34;20160;-68
2021/09/09 10:21:44;;;;;;;6.05;5.22;;;;;;;;;;4184526;34;20118;-69
2021/09/09 10:24:18;;;;;;;7.62;4.78;;;;;;;;;;4177445;34;20125;-69
2021/09/09 10:26:44;;;;;;;5.45;4.80;;;;;;;;;;4177518;34;20133;-69
2021/09/09 10:29:45;;;;;;;9.43;4.70;;;;;;;;;;4177202;34;20109;-69
2021/09/09 10:32:29;;;;;;;6.05;4.87;;;;;;;;;;4177073;34;20113;-69
2021/09/09 10:35:14;;;;;;;7.60;4.47;;;;;;;;;;4177750;34;20091;-69
2021/09/09 10:37:41;;;;;;;7.17;5.50;;;;;;;;;;4177828;34;20521;-69
2021/09/09 10:40:07;;;;;;;7.97;4.95;;;;;;;;;;4165045;34;20209;-69
2021/09/09 10:42:36;;;;;;;7.30;4.93;;;;;;;;;;4174893;34;20098;-69
2021/09/09 10:45:03;;;;;;;8.95;5.15;;;;;;;;;;4177309;34;20122;-69
2021/09/09 10:47:29;;;;;;;8.68;5.70;;;;;;;;;;4185917;34;20208;-69
2021/09/09 10:50:02;;;;;;;6.57;4.75;;;;;;;;;;4178441;34;20638;-70
2021/09/09 10:52:28;;;;;;;8.38;5.18;;;;;;;;;;4190705;34;20101;-69
2021/09/09 10:55:05;;;;;;;6.00;4.35;;;;;;;;;;4178486;34;20116;-71
2021/09/09 10:57:31;;;;;;;5.80;5.00;;;;;;;;;;4190708;34;20547;-69
2021/09/09 10:59:57;;;;;;;7.37;5.00;;;;;;;;;;4191259;34;20118;-69
2021/09/09 11:02:23;;;;;;;6.47;4.75;;;;;;;;;;4177906;34;20094;-70
2021/09/09 11:04:49;;;;;;;5.30;4.28;;;;;;;;;;4191175;34;20125;-70
2021/09/09 11:07:30;;;;;;;5.45;4.43;;;;;;;;;;4190747;34;20122;-69
2021/09/09 11:10:03;;;;;;;6.05;4.70;;;;;;;;;;4190926;34;20113;-69
2021/09/09 11:12:43;;;;;;;6.93;5.18;;;;;;;;;;4178254;34;20207;-70
2021/09/09 11:15:10;;;;;;;7.20;4.60;;;;;;;;;;4178800;34;20094;-70
2021/09/09 11:17:36;;;;;;;5.90;4.10;;;;;;;;;;4190730;34;20123;-70
2021/09/09 11:20:05;;;;;;;6.47;4.93;;;;;;;;;;4191077;34;20131;-69
2021/09/09 11:22:33;;;;;;;8.48;4.32;;;;;;;;;;4176532;34;20203;-70
2021/09/09 11:25:00;;;;;;;9.38;5.25;;;;;;;;;;4176957;34;20182;-69
2021/09/09 11:27:35;;;;;;;5.57;4.40;;;;;;;;;;4153749;34;20111;-68
2021/09/09 11:30:02;;;;;;;8.02;4.80;;;;;;;;;;4151489;34;20131;-69
2021/09/09 11:32:28;;;;;;;6.97;4.55;;;;;;;;;;4184623;34;20117;-70
2021/09/09 11:35:06;;;;;;;6.95;5.18;;;;;;;;;;4190783;34;20141;-69
2021/09/09 11:37:42;;;;;;;5.75;4.30;;;;;;;;;;4178205;34;20092;-69
2021/09/09 11:40:08;;;;;;;;;;;;;;;;;;4190919;34;20543;-68
2021/09/09 11:42:34;;;;;;;8.95;5.15;;;;;;;;;;4190373;34;20005;-69
2021/09/09 11:45:02;;;;;;;6.30;4.45;;;;;;;;;;4190704;34;20222;-69
2021/09/09 11:47:28;;;;;;;5.15;4.55;;;;;;;;;;4190413;34;20098;-70
2021/09/09 11:50:04;;;;;;;10.52;4.65;;;;;;;;;;4177628;34;20561;-69
2021/09/09 11:52:30;;;;;;;5.53;4.47;;;;;;;;;;4190482;34;20541;-70
2021/09/09 11:54:57;;;;;;;7.87;4.85;;;;;;;;;;4177714;34;20201;-70
2021/09/09 11:57:23;;;;;;;8.88;4.53;;;;;;;;;;4190030;34;20638;-70
2021/09/09 11:59:52;;;;;;;6.72;4.35;;;;;;;;;;4177839;34;20172;-70
2021/09/09 12:02:29;;;;;;;8.70;4.32;;;;;;;;;;4190324;34;20499;-70
2021/09/09 12:04:56;;;;;;;8.98;4.60;;;;;;;;;;4166473;34;20124;-70
2021/09/09 12:07:27;;;;;;;6.37;3.70;;;;;;;;;;4166465;34;20114;-70
2021/09/09 12:09:59;;;;;;;4.32;3.25;;;;;;;;;;4190302;34;20500;-69
2021/09/09 12:12:30;;;;;;;14.43;4.10;;;;;;;;;;4177454;34;20130;-69
2021/09/09 12:15:04;;;;;;;9.25;4.28;;;;;;;;;;4177679;34;20110;-71
2021/09/09 12:17:30;;;;;;;6.35;4.22;;;;;;;;;;4177374;34;20134;-71
2021/09/09 12:20:03;;;;;;;9.50;4.40;;;;;;;;;;4190308;34;20125;-70
2021/09/09 12:22:46;;;;;;;4.68;4.07;;;;;;;;;;4178925;34;20187;-70
2021/09/09 12:25:27;;;;;;;6.00;4.15;;;;;;;;;;4176653;34;20120;-71
2021/09/09 12:27:57;;;;;;;4.28;3.50;;;;;;;;;;4176412;34;20106;-71
2021/09/09 12:30:27;;;;;;;8.10;4.45;;;;;;;;;;4175815;34;20234;-70
2021/09/09 12:32:53;;;;;;;9.63;4.20;;;;;;;;;;4176354;34;20114;-71
2021/09/09 12:35:21;;;;;;;7.57;3.85;;;;;;;;;;4164028;34;20124;-71
2021/09/09 12:38:07;;;;;;;6.60;3.90;;;;;;;;;;4178159;34;20118;-71
2021/09/09 12:40:46;;;;;;;6.35;4.18;;;;;;;;;;4177033;34;20098;-71
2021/09/09 12:43:23;;;;;;;15.55;4.55;;;;;;;;;;4178574;34;20475;-70
2021/09/09 12:45:49;;;;;;;6.12;4.20;;;;;;;;;;4165695;34;20173;-70
2021/09/09 12:48:15;;;;;;;5.95;4.45;;;;;;;;;;4178424;34;20114;-69
2021/09/09 12:50:50;;;;;;;9.57;4.22;;;;;;;;;;4165722;34;20194;-70
2021/09/09 12:53:16;;;;;;;5.70;4.47;;;;;;;;;;4165420;34;20544;-70
2021/09/09 12:55:42;;;;;;;10.43;4.53;;;;;;;;;;4178337;34;20198;-68
2021/09/09 12:58:13;;;;;;;6.95;4.40;;;;;;;;;;4176230;34;20602;-68
2021/09/09 13:00:39;;;;;;;8.15;4.40;;;;;;;;;;4178456;34;20489;-69
2021/09/09 13:03:05;;;;;;;15.88;5.07;;;;;;;;;;4166311;34;20251;-69
2021/09/09 13:05:31;;;;;;;5.22;4.15;;;;;;;;;;4173890;34;20111;-69
2021/09/09 13:07:57;;;;;;;9.02;4.53;;;;;;;;;;4169763;34;20130;-69
2021/09/09 13:10:23;;;;;;;7.05;4.35;;;;;;;;;;4176692;34;20137;-69
2021/09/09 13:12:49;;;;;;;11.82;4.40;;;;;;;;;;4153947;34;20568;-68
2021/09/09 13:15:15;;;;;;;6.60;4.57;;;;;;;;;;4177708;34;20126;-69
2021/09/09 13:17:41;;;;;;;7.50;4.75;;;;;;;;;;4177766;34;20137;-69
2021/09/09 13:20:07;;;;;;;8.65;4.50;;;;;;;;;;4177990;34;20224;-69
2021/09/09 13:22:33;;;;;;;11.55;4.78;;;;;;;;;;4178046;34;20123;-69
2021/09/09 13:24:59;;;;;;;4.62;3.72;;;;;;;;;;4165350;34;20166;-69
2021/09/09 13:27:25;;;;;;;13.15;5.68;;;;;;;;;;4177970;34;20102;-69
2021/09/09 13:29:51;;;;;;;7.12;4.43;;;;;;;;;;4178335;34;20113;-72
2021/09/09 13:32:17;;;;;;;9.73;4.72;;;;;;;;;;4165406;34;20118;-70
2021/09/09 13:34:43;;;;;;;6.85;4.43;;;;;;;;;;4166371;34;20538;-70
2021/09/09 13:37:09;;;;;;;9.13;4.45;;;;;;;;;;4178240;34;20130;-71
2021/09/09 13:39:35;;;;;;;11.88;4.80;;;;;;;;;;4177885;34;20117;-70
2021/09/09 13:42:01;;;;;;;6.53;4.70;;;;;;;;;;4177995;34;20194;-69
2021/09/09 13:44:26;;;;;;;9.50;5.28;;;;;;;;;;4178165;34;20118;-69
2021/09/09 13:46:52;;;;;;;13.13;5.20;;;;;;;;;;4177951;34;20106;-68
2021/09/09 13:49:18;;;;;;;7.65;5.18;;;;;;;;;;4178083;34;20164;-69
2021/09/09 13:51:44;;;;;;;7.20;4.40;;;;;;;;;;4164391;34;20091;-69
2021/09/09 13:54:10;;;;;;;8.68;4.85;;;;;;;;;;4177822;34;20133;-69
2021/09/09 13:56:36;;;;;;;9.70;4.50;;;;;;;;;;4177761;34;20523;-68
2021/09/09 13:59:01;;;;;;;8.93;4.50;;;;;;;;;;4178071;34;20120;-68
2021/09/09 14:01:28;;;;;;;8.63;4.62;;;;;;;;;;4165165;34;20122;-69
2021/09/09 14:03:54;;;;;;;6.25;4.20;;;;;;;;;;4174665;34;20541;-69
2021/09/09 14:06:20;;;;;;;9.23;4.62;;;;;;;;;;4164496;34;20126;-68
2021/09/09 14:08:46;;;;;;;10.18;5.03;;;;;;;;;;4177733;34;20138;-68
2021/09/09 14:11:12;;;;;;;6.62;4.55;;;;;;;;;;4177507;34;20506;-68
2021/09/09 14:13:38;;;;;;;5.93;4.25;;;;;;;;;;4177814;34;20514;-68
2021/09/09 14:16:04;;;;;;;10.40;4.62;;;;;;;;;;4176856;34;20522;-70
2021/09/09 14:18:30;;;;;;;5.60;4.78;;;;;;;;;;4177439;34;20117;-69
2021/09/09 14:20:55;;;;;;;9.32;4.68;;;;;;;;;;4174891;34;20119;-69
2021/09/09 14:23:21;;;;;;;8.43;4.65;;;;;;;;;;4188016;34;20461;-70
2021/09/09 14:25:47;;;;;;;6.50;4.62;;;;;;;;;;4177388;34;20122;-69
2021/09/09 14:28:13;;;;;;;9.80;5.15;;;;;;;;;;4177507;34;20177;-71
2021/09/09 14:30:39;;;;;;;10.18;5.70;;;;;;;;;;4177543;34;20099;-71
2021/09/09 14:33:05;;;;;;;11.45;5.07;;;;;;;;;;4164968;34;20098;-72
2021/09/09 14:35:31;;;;;;;6.00;4.20;;;;;;;;;;4177273;34;20105;-71
2021/09/09 14:37:57;;;;;;;8.50;4.22;;;;;;;;;;4164580;34;20419;-71
2021/09/09 14:40:23;;;;;;;10.55;4.12;;;;;;;;;;4176886;34;20141;-70
2021/09/09 14:42:49;;;;;;;5.95;4.50;;;;;;;;;;4180666;34;20482;-70
2021/09/09 14:45:15;;;;;;;9.85;4.00;;;;;;;;;;4177265;34;20121;-70
2021/09/09 14:47:41;;;;;;;10.90;4.87;;;;;;;;;;4183064;34;20189;-70
2021/09/09 14:50:07;;;;;;;11.38;4.93;;;;;;;;;;4190936;34;20134;-71
2021/09/09 14:52:33;;;;;;;7.00;4.50;;;;;;;;;;4184006;34;20279;-70
2021/09/09 14:54:59;;;;;;;9.07;4.43;;;;;;;;;;4176703;34;20575;-70
2021/09/09 14:57:25;;;;;;;7.07;4.15;;;;;;;;;;4177068;34;20130;-70
2021/09/09 14:59:51;;;;;;;11.57;4.60;;;;;;;;;;4177025;34;20466;-70